EST,Max TemperatureF,Mean TemperatureF,Min TemperatureF,Max Dew PointF,MeanDew PointF,Min DewpointF,Max Humidity, Mean Humidity, Min Humidity, Max Sea Level PressureIn, Mean Sea Level PressureIn, Min Sea Level PressureIn, Max VisibilityMiles, Mean VisibilityMiles, Min VisibilityMiles, Max Wind SpeedMPH, Mean Wind SpeedMPH, Max Gust SpeedMPH,PrecipitationIn, CloudCover, Events, WindDirDegrees
2013-1-1,26,20,14,16,10,5,77,66,54,30.19,30.10,30.06,10,10,10,18,8,23,0.00,8,,298
2013-1-2,25,21,16,19,14,10,81,74,67,30.20,30.15,30.09,10,10,5,17,7,21,T,8,Snow,265
2013-1-3,29,24,18,23,16,9,81,72,62,30.17,30.11,30.04,10,8,4,20,10,24,T,8,Snow,237
2013-1-4,33,28,23,22,20,17,75,68,61,30.19,30.07,29.99,10,10,9,23,13,31,0.00,4,,246
2013-1-5,34,23,12,30,22,10,92,78,63,30.28,30.13,29.99,8,4,2,14,7,18,0.05,4,Snow,201
2013-1-6,35,33,31,34,29,24,92,81,69,30.28,29.99,29.87,10,6,1,18,10,23,0.06,8,Snow,259
2013-1-7,37,33,28,24,22,19,78,65,52,30.36,30.26,30.14,10,10,10,22,10,30,0.00,3,,204
2013-1-8,38,33,27,25,22,20,75,67,59,30.25,30.20,30.14,10,7,5,14,8,20,0.00,0,,195
2013-1-9,45,38,31,31,27,25,76,63,49,30.44,30.16,30.01,10,9,7,33,15,43,0.02,2,,243
2013-1-10,42,31,19,32,25,21,96,74,51,30.59,30.46,30.15,10,9,5,14,7,20,0.09,1,Rain,151
2013-1-11,55,46,36,50,40,30,93,84,74,30.15,29.89,29.75,10,8,2,23,10,30,0.51,7,Rain,175
2013-1-12,60,53,46,47,43,31,86,72,57,29.94,29.87,29.81,10,10,10,18,8,25,0.00,1,,219
2013-1-13,47,38,28,36,33,23,96,75,53,30.05,29.90,29.82,10,6,1,22,9,28,0.59,8,Rain-Snow,308
2013-1-14,28,22,16,20,15,12,81,72,62,30.45,30.34,30.08,10,10,9,26,11,32,T,4,,283
2013-1-15,29,20,11,18,14,8,88,76,63,30.46,30.37,30.18,10,9,6,7,1,8,0.00,0,,256
2013-1-16,34,24,13,27,18,11,88,68,47,30.15,29.95,29.77,10,9,4,22,9,29,T,4,Snow,229
2013-1-17,34,26,17,27,18,4,78,64,49,30.34,30.15,29.93,10,10,7,25,12,36,0.00,7,,310
2013-1-18,37,23,9,21,14,5,83,63,43,30.45,30.25,29.93,10,9,1,25,11,37,0.01,5,Snow,209
2013-1-19,46,42,37,33,28,22,70,61,52,29.93,29.79,29.53,10,10,10,26,15,35,0.00,4,,224
2013-1-20,44,28,12,24,8,2,70,58,45,30.21,30.01,29.53,10,10,8,43,21,59,T,7,Snow,280
2013-1-21,16,10,4,10,3,-6,80,68,55,30.15,30.03,29.94,10,7,0,24,12,31,0.03,7,Snow,277
2013-1-22,10,5,-1,0,-6,-12,76,63,50,30.31,30.24,30.14,10,9,2,23,13,30,T,5,Snow,289
2013-1-23,18,10,1,11,5,-5,80,71,61,30.31,30.15,30.04,10,5,0,14,7,20,0.07,7,Snow,238
2013-1-24,16,8,0,10,2,-4,91,72,53,30.62,30.45,30.10,10,9,1,13,5,17,0.01,1,Snow,316
2013-1-25,21,16,11,16,10,2,84,73,62,30.51,30.17,30.00,10,4,1,15,6,17,0.10,8,Snow,161
2013-1-26,27,18,9,16,14,7,84,71,57,30.46,30.25,30.03,10,8,5,15,7,17,T,6,,268
2013-1-27,29,19,8,25,17,5,88,71,53,30.48,30.32,30.11,10,6,1,17,8,22,0.33,6,Rain-Snow,149
2013-1-28,43,36,29,41,35,27,100,93,85,30.12,29.93,29.84,10,4,1,18,9,26,0.20,8,Rain,210
2013-1-29,58,45,31,56,41,30,100,91,82,30.01,29.76,29.43,10,5,1,24,11,31,0.92,8,Rain-Thunderstorm,168
2013-1-30,58,45,31,57,46,26,100,93,86,29.39,29.23,29.10,10,5,0,29,9,38,0.81,8,Fog-Rain,225
2013-1-31,31,24,16,21,14,9,88,75,62,29.88,29.64,29.29,10,4,0,35,20,44,0.09,8,Snow,276